createdAt,value
2018-06-02T00:00:22.928Z,99.90
2018-06-02T00:01:22.930Z,99.40
2018-06-02T00:02:22.943Z,105.00
2018-06-02T00:03:22.969Z,114.50
2018-06-02T00:04:22.994Z,113.90
2018-06-02T00:05:23.022Z,101.60
2018-06-02T00:06:23.047Z,114.80
2018-06-02T00:07:23.086Z,107.10
2018-06-02T00:08:23.088Z,114.10
2018-06-02T00:09:23.111Z,109.90
2018-06-02T00:10:23.137Z,115.60
2018-06-02T00:11:23.226Z,106.70
2018-06-02T00:12:23.190Z,107.60
2018-06-02T00:13:23.215Z,107.20
2018-06-02T00:14:23.235Z,118.00
2018-06-02T00:15:23.255Z,115.70
2018-06-02T00:16:23.280Z,113.90
2018-06-02T00:17:23.306Z,120.60
2018-06-02T00:18:23.332Z,111.90
2018-06-02T00:19:23.358Z,109.00
2018-06-02T00:20:23.373Z,105.10
2018-06-02T00:21:23.401Z,118.20
2018-06-02T00:22:23.424Z,116.40
2018-06-02T00:23:23.450Z,127.60
2018-06-02T00:24:23.475Z,132.20
2018-06-02T00:25:23.503Z,118.20
2018-06-02T00:26:23.515Z,126.90
2018-06-02T00:27:23.539Z,127.20
2018-06-02T00:28:23.566Z,141.10
2018-06-02T00:29:23.594Z,128.20
2018-06-02T00:30:23.618Z,116.90
2018-06-02T00:31:23.643Z,122.40
2018-06-02T00:32:23.659Z,114.90
2018-06-02T00:33:23.684Z,117.70
2018-06-02T00:34:23.710Z,119.60
2018-06-02T00:35:23.736Z,124.20
2018-06-02T00:36:23.762Z,123.20
2018-06-02T00:37:23.788Z,123.70
2018-06-02T00:38:23.802Z,124.20
2018-06-02T00:39:23.827Z,121.30
2018-06-02T00:40:23.853Z,126.90
2018-06-02T00:41:23.878Z,125.30
2018-06-02T00:42:23.904Z,117.00
2018-06-02T00:43:23.931Z,122.80
2018-06-02T00:44:23.959Z,136.70
2018-06-02T00:45:23.974Z,109.40
2018-06-02T00:46:23.996Z,119.00
2018-06-02T00:47:24.022Z,124.30
2018-06-02T00:48:24.048Z,127.80
2018-06-02T00:49:24.074Z,135.40
2018-06-02T00:50:24.088Z,127.10
2018-06-02T00:51:24.112Z,109.30
2018-06-02T00:52:24.140Z,115.90
2018-06-02T00:53:24.165Z,118.00
2018-06-02T00:54:24.190Z,130.50
2018-06-02T00:55:24.216Z,119.70
2018-06-02T00:56:24.243Z,118.10
2018-06-02T00:57:24.256Z,122.60
2018-06-02T00:58:24.282Z,114.40
2018-06-02T00:59:24.307Z,118.90
2018-06-02T01:00:24.333Z,117.20
2018-06-02T01:01:24.367Z,123.20
2018-06-02T01:02:24.375Z,135.60
2018-06-02T01:03:24.398Z,125.00
2018-06-02T01:04:24.440Z,129.30
2018-06-02T01:05:24.451Z,138.40
2018-06-02T01:06:24.480Z,138.50
2018-06-02T01:07:24.501Z,135.10
2018-06-02T01:08:24.527Z,147.10
2018-06-02T01:09:24.545Z,163.50
2018-06-02T01:10:24.568Z,164.10
2018-06-02T01:11:24.594Z,138.50
2018-06-02T01:12:24.619Z,141.20
2018-06-02T01:13:24.647Z,149.10
2018-06-02T01:14:24.672Z,162.00
2018-06-02T01:15:24.689Z,170.50
2018-06-02T01:16:24.710Z,167.50
2018-06-02T01:17:24.738Z,160.70
2018-06-02T01:18:24.762Z,154.30
2018-06-02T01:19:24.788Z,152.70
2018-06-02T01:20:24.829Z,162.60
2018-06-02T01:21:24.828Z,159.10
2018-06-02T01:22:24.858Z,156.50
2018-06-02T01:23:24.880Z,155.60
2018-06-02T01:24:24.907Z,156.50
2018-06-02T01:25:24.932Z,171.40
2018-06-02T01:26:24.957Z,148.90
2018-06-02T01:27:24.970Z,139.80
2018-06-02T01:28:24.997Z,147.80
2018-06-02T01:29:25.025Z,154.80
2018-06-02T01:30:25.061Z,160.60
2018-06-02T01:31:25.075Z,145.80
2018-06-02T01:32:25.108Z,148.90
2018-06-02T01:33:25.114Z,137.90
2018-06-02T01:34:25.142Z,120.90
2018-06-02T01:35:25.166Z,148.30
2018-06-02T01:36:25.193Z,151.80
2018-06-02T01:37:25.218Z,133.90
2018-06-02T01:38:25.235Z,155.50
2018-06-02T01:39:25.256Z,159.60
2018-06-02T01:40:25.283Z,165.90
2018-06-02T01:41:25.308Z,172.80
2018-06-02T01:42:25.346Z,153.80
2018-06-02T01:43:25.359Z,168.70
2018-06-02T01:44:25.386Z,176.90
2018-06-02T01:45:25.399Z,155.00
2018-06-02T01:46:25.425Z,152.40
2018-06-02T01:47:25.452Z,169.50
2018-06-02T01:48:25.477Z,163.30
2018-06-02T01:49:25.503Z,150.90
2018-06-02T01:50:25.517Z,158.80
2018-06-02T01:51:25.543Z,192.00
2018-06-02T01:52:25.568Z,169.90
2018-06-02T01:53:25.593Z,178.10
2018-06-02T01:54:25.620Z,161.30
2018-06-02T01:55:25.647Z,181.80
2018-06-02T01:56:25.661Z,171.00
2018-06-02T01:57:25.697Z,170.80
2018-06-02T01:58:25.711Z,143.40
2018-06-02T01:59:25.738Z,162.10
2018-06-02T02:00:25.764Z,173.40
2018-06-02T02:01:25.790Z,166.80
2018-06-02T02:02:25.803Z,195.40
2018-06-02T02:03:25.876Z,170.10
2018-06-02T02:04:25.854Z,157.30
2018-06-02T02:05:25.881Z,172.00
2018-06-02T02:06:25.906Z,150.90
2018-06-02T02:07:25.931Z,168.50
2018-06-02T02:08:25.946Z,171.80
2018-06-02T02:09:25.972Z,179.60
2018-06-02T02:10:25.999Z,183.70
2018-06-02T02:11:26.024Z,193.30
2018-06-02T02:12:26.050Z,201.60
2018-06-02T02:13:26.075Z,194.40
2018-06-02T02:14:26.093Z,205.30
2018-06-02T02:15:26.114Z,186.00
2018-06-02T02:16:26.141Z,195.30
2018-06-02T02:17:26.179Z,164.70
2018-06-02T02:18:26.191Z,174.90
2018-06-02T02:19:26.219Z,189.30
2018-06-02T02:20:26.232Z,164.40
2018-06-02T02:21:26.258Z,172.70
2018-06-02T02:22:26.283Z,168.30
2018-06-02T02:23:26.309Z,164.90
2018-06-02T02:24:26.334Z,178.10
2018-06-02T02:25:26.349Z,176.90
2018-06-02T02:26:26.374Z,198.80
2018-06-02T02:27:26.400Z,195.40
2018-06-02T02:28:26.425Z,183.40
2018-06-02T02:29:26.451Z,195.80
2018-06-02T02:30:26.491Z,165.00
2018-06-02T02:31:26.496Z,188.20
2018-06-02T02:32:26.520Z,179.50
2018-06-02T02:33:26.544Z,149.10
2018-06-02T02:34:26.569Z,192.30
2018-06-02T02:35:26.595Z,179.70
2018-06-02T02:36:26.621Z,178.00
2018-06-02T02:37:26.639Z,179.80
2018-06-02T02:38:26.660Z,191.90
2018-06-02T02:39:26.699Z,175.50
2018-06-02T02:40:26.711Z,173.90
2018-06-02T02:41:26.738Z,180.10
2018-06-02T02:42:26.763Z,162.50
2018-06-02T02:43:26.777Z,181.60
2018-06-02T02:44:26.807Z,186.60
2018-06-02T02:45:26.840Z,163.70
2018-06-02T02:46:26.859Z,181.90
2018-06-02T02:47:26.883Z,174.20
2018-06-02T02:48:26.898Z,172.90
2018-06-02T02:49:26.920Z,170.40
2018-06-02T02:50:26.949Z,182.10
2018-06-02T02:51:26.974Z,162.30
2018-06-02T02:52:26.998Z,161.10
2018-06-02T02:53:27.025Z,159.00
2018-06-02T02:54:27.049Z,160.10
2018-06-02T02:55:27.064Z,177.40
2018-06-02T02:56:27.089Z,176.30
2018-06-02T02:57:27.116Z,180.20
2018-06-02T02:58:27.141Z,178.70
2018-06-02T02:59:27.159Z,167.10
2018-06-02T03:00:27.181Z,175.30
2018-06-02T03:01:27.206Z,163.90
2018-06-02T03:02:27.233Z,174.30
2018-06-02T03:03:27.258Z,212.80
2018-06-02T03:04:27.284Z,167.30
2018-06-02T03:05:27.299Z,200.60
2018-06-02T03:06:27.324Z,188.90
2018-06-02T03:07:27.351Z,177.70
2018-06-02T03:08:27.375Z,192.40
2018-06-02T03:09:27.405Z,192.80
2018-06-02T03:10:27.427Z,174.60
2018-06-02T03:11:27.440Z,168.40
2018-06-02T03:12:27.466Z,170.70
2018-06-02T03:13:27.492Z,183.10
2018-06-02T03:14:27.518Z,181.60
2018-06-02T03:15:27.547Z,162.40
2018-06-02T03:16:27.576Z,152.00
2018-06-02T03:17:27.585Z,139.40
2018-06-02T03:18:27.610Z,144.20
2018-06-02T03:19:27.635Z,170.50
2018-06-02T03:20:27.662Z,150.90
2018-06-02T03:21:27.690Z,184.50
2018-06-02T03:22:27.700Z,172.50
2018-06-02T03:23:27.726Z,184.50
2018-06-02T03:24:27.764Z,170.20
2018-06-02T03:25:27.778Z,193.90
2018-06-02T03:26:28.108Z,171.70
2018-06-02T03:27:27.830Z,189.70
2018-06-02T03:28:27.843Z,169.90
2018-06-02T03:29:27.870Z,184.70
2018-06-02T03:30:27.897Z,186.00
2018-06-02T03:31:28.175Z,187.80
2018-06-02T03:32:27.948Z,181.70
2018-06-02T03:33:27.976Z,199.60
2018-06-02T03:34:27.986Z,200.00
2018-06-02T03:35:28.012Z,196.50
2018-06-02T03:36:28.038Z,193.20
2018-06-02T03:37:28.066Z,203.50
2018-06-02T03:38:28.090Z,192.60
2018-06-02T03:39:28.121Z,191.90
2018-06-02T03:40:28.129Z,171.30
2018-06-02T03:41:28.156Z,198.80
2018-06-02T03:42:28.182Z,194.40
2018-06-02T03:43:28.208Z,198.30
2018-06-02T03:44:28.233Z,174.60
2018-06-02T03:45:28.249Z,169.60
2018-06-02T03:46:28.272Z,159.60
2018-06-02T03:47:28.299Z,158.60
2018-06-02T03:48:28.323Z,175.00
2018-06-02T03:49:28.351Z,158.10
2018-06-02T03:50:28.374Z,182.40
2018-06-02T03:51:28.391Z,170.50
2018-06-02T03:52:28.414Z,196.00
2018-06-02T03:53:28.441Z,205.00
2018-06-02T03:54:28.467Z,183.90
2018-06-02T03:55:28.493Z,208.70
2018-06-02T03:56:28.519Z,190.70
2018-06-02T03:57:28.532Z,166.20
2018-06-02T03:58:28.557Z,194.10
2018-06-02T03:59:28.597Z,186.80
2018-06-02T04:00:28.628Z,165.40
2018-06-02T04:01:28.635Z,177.00
2018-06-02T04:02:28.661Z,191.30
2018-06-02T04:03:28.687Z,179.30
2018-06-02T04:04:28.703Z,190.30
2018-06-02T04:05:28.727Z,183.50
2018-06-02T04:06:28.754Z,172.30
2018-06-02T04:07:28.778Z,175.70
2018-06-02T04:08:28.806Z,182.90
2018-06-02T04:09:28.831Z,173.50
2018-06-02T04:10:28.851Z,191.50
2018-06-02T04:11:28.869Z,179.00
2018-06-02T04:12:28.898Z,159.80
2018-06-02T04:13:28.922Z,183.10
2018-06-02T04:14:28.949Z,170.80
2018-06-02T04:15:28.987Z,174.00
2018-06-02T04:16:28.999Z,162.50
2018-06-02T04:17:29.014Z,183.20
2018-06-02T04:18:29.040Z,175.40
2018-06-02T04:19:29.065Z,174.50
2018-06-02T04:20:29.097Z,165.50
2018-06-02T04:21:29.120Z,154.50
2018-06-02T04:22:29.143Z,162.10
2018-06-02T04:23:29.169Z,178.70
2018-06-02T04:24:29.194Z,173.60
2018-06-02T04:25:29.207Z,171.90
2018-06-02T04:26:29.235Z,170.80
2018-06-02T04:27:29.263Z,161.70
2018-06-02T04:28:29.285Z,160.50
2018-06-02T04:29:29.311Z,152.90
2018-06-02T04:30:29.337Z,160.40
2018-06-02T04:31:29.366Z,158.80
2018-06-02T04:32:29.393Z,148.00
2018-06-02T04:33:29.403Z,149.50
2018-06-02T04:34:29.429Z,145.30
2018-06-02T04:35:29.461Z,145.50
2018-06-02T04:36:29.482Z,147.20
2018-06-02T04:37:29.511Z,136.40
2018-06-02T04:38:29.533Z,135.80
2018-06-02T04:39:29.559Z,141.60
2018-06-02T04:40:29.586Z,134.50
2018-06-02T04:41:29.631Z,136.90
2018-06-02T04:42:29.623Z,137.70
2018-06-02T04:43:29.662Z,135.60
2018-06-02T04:44:29.674Z,132.50
2018-06-02T04:45:29.714Z,137.60
2018-06-02T04:46:29.726Z,130.60
2018-06-02T04:47:29.752Z,125.30
2018-06-02T04:48:29.778Z,125.20
2018-06-02T04:49:29.793Z,128.10
2018-06-02T04:50:29.819Z,126.20
2018-06-02T04:51:29.857Z,122.00
2018-06-02T04:52:29.884Z,118.90
2018-06-02T04:53:29.897Z,121.90
2018-06-02T04:54:29.925Z,121.90
2018-06-02T04:55:29.948Z,116.70
2018-06-02T04:56:29.978Z,104.20
2018-06-02T04:57:30.000Z,111.60
2018-06-02T04:58:30.026Z,104.40
2018-06-02T04:59:30.071Z,100.70
2018-06-02T05:00:30.065Z,98.40
2018-06-02T05:01:30.091Z,101.90
2018-06-02T05:02:30.123Z,101.40
2018-06-02T05:03:30.144Z,94.80
2018-06-02T05:04:30.198Z,96.70
2018-06-02T05:05:30.194Z,97.30
2018-06-02T05:06:30.220Z,90.10
2018-06-02T05:07:30.245Z,93.30
2018-06-02T05:08:30.272Z,89.10
2018-06-02T05:09:30.298Z,83.00
2018-06-02T05:10:30.313Z,90.90
2018-06-02T05:11:30.338Z,84.10
2018-06-02T05:12:30.369Z,79.10
2018-06-02T05:13:30.389Z,75.20
2018-06-02T05:14:30.416Z,73.60
2018-06-02T05:15:30.443Z,73.20
2018-06-02T05:16:30.469Z,66.20
2018-06-02T05:17:30.495Z,66.40
2018-06-02T05:18:30.521Z,64.00
2018-06-02T05:19:30.549Z,61.80
2018-06-02T05:20:30.573Z,63.90
2018-06-02T05:21:30.597Z,60.80
2018-06-02T05:22:30.624Z,61.90
2018-06-02T05:23:30.649Z,62.70
2018-06-02T05:24:30.675Z,59.90
2018-06-02T05:25:30.688Z,58.90
2018-06-02T05:26:30.714Z,62.60
2018-06-02T05:27:30.739Z,59.40
2018-06-02T05:28:30.767Z,62.20
2018-06-02T05:29:30.792Z,55.50
2018-06-02T05:30:30.818Z,56.00
2018-06-02T05:31:30.844Z,57.50
2018-06-02T05:32:30.872Z,56.30
2018-06-02T05:33:30.896Z,60.70
2018-06-02T05:34:30.921Z,54.80
2018-06-02T05:35:30.960Z,53.60
2018-06-02T05:36:30.974Z,54.80
2018-06-02T05:37:31.001Z,55.00
2018-06-02T05:38:31.025Z,53.60
2018-06-02T05:39:31.050Z,59.10
2018-06-02T05:40:31.082Z,55.90
2018-06-02T05:41:31.104Z,54.90
2018-06-02T05:42:31.131Z,52.90
2018-06-02T05:43:31.158Z,54.20
2018-06-02T05:44:31.180Z,52.70
2018-06-02T05:45:31.206Z,55.70
2018-06-02T05:46:31.232Z,52.10
2018-06-02T05:47:31.258Z,56.40
2018-06-02T05:48:31.287Z,56.30
2018-06-02T05:49:31.314Z,57.10
2018-06-02T05:50:31.349Z,56.60
2018-06-02T05:51:31.361Z,54.70
2018-06-02T05:52:31.392Z,61.90
2018-06-02T05:53:31.402Z,50.40
2018-06-02T05:54:31.428Z,49.90
2018-06-02T05:55:31.465Z,49.30
2018-06-02T05:56:31.491Z,49.00
2018-06-02T05:57:31.506Z,52.20
2018-06-02T05:58:31.532Z,50.80
2018-06-02T05:59:31.569Z,46.80
2018-06-02T06:00:31.595Z,50.00
2018-06-02T06:01:31.608Z,48.50
2018-06-02T06:02:31.635Z,45.10
2018-06-02T06:03:31.672Z,44.90
2018-06-02T06:04:31.699Z,44.80
2018-06-02T06:05:31.736Z,44.50
2018-06-02T06:06:31.751Z,44.20
2018-06-02T06:07:31.777Z,43.90
2018-06-02T06:08:31.802Z,44.50
2018-06-02T06:09:31.829Z,45.50
2018-06-02T06:10:31.854Z,45.30
2018-06-02T06:11:31.893Z,45.30
2018-06-02T06:12:31.909Z,41.00
2018-06-02T06:13:31.931Z,40.50
2018-06-02T06:14:31.957Z,43.60
2018-06-02T06:15:31.984Z,44.70
2018-06-02T06:16:32.010Z,41.00
2018-06-02T06:17:32.037Z,39.30
2018-06-02T06:18:32.061Z,41.50
2018-06-02T06:19:32.132Z,43.10
2018-06-02T06:20:32.127Z,42.00
2018-06-02T06:21:32.143Z,42.70
2018-06-02T06:22:32.164Z,38.50
2018-06-02T06:23:32.190Z,40.90
2018-06-02T06:24:32.217Z,41.40
2018-06-02T06:25:32.249Z,37.20
2018-06-02T06:26:32.282Z,38.30
2018-06-02T06:27:32.295Z,39.60
2018-06-02T06:28:32.334Z,38.90
2018-06-02T06:29:32.360Z,42.70
2018-06-02T06:30:32.386Z,40.30
2018-06-02T06:31:32.415Z,41.20
2018-06-02T06:32:32.438Z,39.30
2018-06-02T06:33:32.463Z,41.00
2018-06-02T06:34:32.489Z,40.60
2018-06-02T06:35:32.521Z,38.90
2018-06-02T06:36:32.541Z,40.00
2018-06-02T06:37:32.567Z,39.30
2018-06-02T06:38:32.594Z,40.60
2018-06-02T06:39:32.619Z,41.80
2018-06-02T06:40:32.670Z,37.70
2018-06-02T06:41:32.684Z,35.00
2018-06-02T06:42:32.709Z,36.80
2018-06-02T06:43:32.737Z,36.50
2018-06-02T06:44:32.793Z,37.80
2018-06-02T06:45:32.786Z,37.50
2018-06-02T06:46:32.840Z,37.30
2018-06-02T06:47:32.840Z,35.80
2018-06-02T06:48:32.877Z,34.60
2018-06-02T06:49:32.903Z,38.60
2018-06-02T06:50:32.972Z,35.60
2018-06-02T06:51:32.955Z,37.40
2018-06-02T06:52:32.980Z,37.30
2018-06-02T06:53:33.007Z,35.70
2018-06-02T06:54:33.045Z,39.60
2018-06-02T06:55:33.070Z,40.10
2018-06-02T06:56:33.100Z,41.40
2018-06-02T06:57:33.127Z,37.20
2018-06-02T06:58:33.148Z,35.00
2018-06-02T06:59:33.174Z,36.40
2018-06-02T07:00:33.213Z,38.00
2018-06-02T07:01:33.240Z,37.10
2018-06-02T07:02:33.267Z,34.90
2018-06-02T07:03:33.290Z,37.00
2018-06-02T07:04:33.317Z,33.20
2018-06-02T07:05:33.355Z,33.30
2018-06-02T07:06:33.381Z,35.20
2018-06-02T07:07:33.406Z,31.20
2018-06-02T07:08:33.433Z,35.40
2018-06-02T07:09:33.476Z,33.90
2018-06-02T07:10:33.497Z,35.30
2018-06-02T07:11:33.524Z,32.50
2018-06-02T07:12:33.561Z,34.10
2018-06-02T07:13:33.587Z,31.10
2018-06-02T07:14:33.614Z,34.60
2018-06-02T07:15:33.652Z,31.50
2018-06-02T07:16:33.679Z,30.10
2018-06-02T07:17:33.703Z,31.90
2018-06-02T07:18:33.742Z,33.00
2018-06-02T07:19:33.768Z,32.50
2018-06-02T07:20:33.794Z,34.10
2018-06-02T07:21:33.832Z,37.80
2018-06-02T07:22:33.860Z,36.50
2018-06-02T07:23:33.884Z,36.70
2018-06-02T07:24:33.935Z,35.00
2018-06-02T07:25:33.948Z,36.20
2018-06-02T07:26:33.977Z,35.00
2018-06-02T07:27:34.046Z,29.60
2018-06-02T07:28:34.039Z,33.80
2018-06-02T07:29:34.065Z,36.90
2018-06-02T07:30:34.103Z,37.40
2018-06-02T07:31:34.129Z,37.30
2018-06-02T07:32:34.167Z,35.10
2018-06-02T07:33:34.195Z,36.60
2018-06-02T07:34:34.220Z,35.40
2018-06-02T07:35:34.245Z,34.80
2018-06-02T07:36:34.286Z,33.00
2018-06-02T07:37:34.311Z,34.00
2018-06-02T07:38:34.348Z,33.80
2018-06-02T07:39:34.374Z,32.30
2018-06-02T07:40:34.403Z,32.20
2018-06-02T07:41:34.440Z,32.70
2018-06-02T07:42:34.463Z,33.90
2018-06-02T07:43:34.503Z,37.90
2018-06-02T07:44:34.529Z,33.40
2018-06-02T07:45:34.555Z,32.50
2018-06-02T07:46:34.592Z,32.80
2018-06-02T07:47:34.619Z,32.10
2018-06-02T07:48:34.657Z,32.00
2018-06-02T07:49:34.686Z,30.00
2018-06-02T07:50:34.721Z,31.00
2018-06-02T07:51:34.748Z,31.90
2018-06-02T07:52:34.786Z,31.80
2018-06-02T07:53:34.813Z,35.60
2018-06-02T07:54:34.853Z,34.10
2018-06-02T07:55:34.889Z,40.50
2018-06-02T07:56:34.916Z,32.60
2018-06-02T07:57:34.972Z,32.50
2018-06-02T07:58:34.985Z,31.90
2018-06-02T07:59:35.017Z,29.80
2018-06-02T08:00:35.055Z,33.40
2018-06-02T08:01:35.087Z,33.10
2018-06-02T08:02:35.120Z,32.70
2018-06-02T08:03:35.158Z,33.70
2018-06-02T08:04:35.184Z,33.70
2018-06-02T08:05:35.223Z,31.50
2018-06-02T08:06:35.260Z,27.60
2018-06-02T08:07:35.288Z,32.50
2018-06-02T08:08:35.357Z,30.30
2018-06-02T08:09:35.365Z,31.70
2018-06-02T08:10:35.390Z,34.10
2018-06-02T08:11:35.431Z,31.90
2018-06-02T08:12:35.466Z,35.70
2018-06-02T08:13:35.493Z,31.80
2018-06-02T08:14:35.531Z,34.00
2018-06-02T08:15:35.569Z,34.40
2018-06-02T08:16:35.608Z,32.00
2018-06-02T08:17:35.634Z,35.90
2018-06-02T08:18:35.673Z,31.90
2018-06-02T08:19:35.711Z,30.20
2018-06-02T08:20:35.754Z,34.10
2018-06-02T08:21:35.774Z,32.40
2018-06-02T08:22:35.813Z,32.00
2018-06-02T08:23:35.843Z,31.60
2018-06-02T08:24:35.878Z,30.80
2018-06-02T08:25:35.917Z,29.20
2018-06-02T08:26:35.944Z,32.90
2018-06-02T08:27:35.980Z,31.00
2018-06-02T08:28:36.020Z,31.60
2018-06-02T08:29:36.057Z,29.00
2018-06-02T08:30:36.085Z,33.30
2018-06-02T08:31:36.122Z,30.30
2018-06-02T08:32:36.159Z,31.10
2018-06-02T08:33:36.215Z,34.50
2018-06-02T08:34:36.228Z,29.30
2018-06-02T08:35:36.262Z,31.50
2018-06-02T08:36:36.304Z,32.40
2018-06-02T08:37:36.328Z,32.30
2018-06-02T08:38:36.366Z,31.80
2018-06-02T08:39:36.403Z,38.40
2018-06-02T08:40:36.441Z,30.70
2018-06-02T08:41:36.468Z,32.80
2018-06-02T08:42:36.508Z,33.00
2018-06-02T08:43:36.544Z,31.40
2018-06-02T08:44:36.583Z,30.60
2018-06-02T08:45:36.609Z,32.40
2018-06-02T08:46:36.647Z,32.60
2018-06-02T08:47:36.685Z,36.20
2018-06-02T08:48:36.723Z,33.70
2018-06-02T08:49:36.750Z,32.20
2018-06-02T08:50:36.789Z,37.60
2018-06-02T08:51:36.827Z,34.10
2018-06-02T08:52:36.871Z,32.50
2018-06-02T08:53:36.894Z,32.00
2018-06-02T08:54:36.929Z,30.70
2018-06-02T08:55:36.955Z,29.40
2018-06-02T08:56:36.994Z,28.70
2018-06-02T08:57:37.020Z,29.50
2018-06-02T08:58:37.057Z,33.60
2018-06-02T08:59:37.100Z,29.70
2018-06-02T09:00:37.123Z,31.80
2018-06-02T09:01:37.161Z,31.20
2018-06-02T09:02:37.190Z,26.30
2018-06-02T09:03:37.226Z,31.80
2018-06-02T09:04:37.264Z,29.20
2018-06-02T09:05:37.289Z,28.70
2018-06-02T09:06:37.332Z,28.10
2018-06-02T09:07:37.358Z,29.20
2018-06-02T09:08:37.392Z,31.40
2018-06-02T09:09:37.419Z,29.90
2018-06-02T09:10:37.456Z,27.70
2018-06-02T09:11:37.495Z,29.60
2018-06-02T09:12:37.521Z,28.20
2018-06-02T09:13:37.560Z,29.30
2018-06-02T09:14:37.587Z,31.70
2018-06-02T09:15:37.650Z,31.20
2018-06-02T09:16:37.649Z,29.70
2018-06-02T09:17:37.689Z,31.40
2018-06-02T09:18:37.715Z,33.10
2018-06-02T09:19:37.753Z,31.40
2018-06-02T09:20:37.791Z,34.60
2018-06-02T09:21:37.817Z,29.70
2018-06-02T09:22:37.844Z,32.30
2018-06-02T09:23:37.881Z,32.90
2018-06-02T09:24:37.907Z,31.60
2018-06-02T09:25:37.946Z,27.40
2018-06-02T09:26:37.972Z,30.30
2018-06-02T09:27:38.009Z,30.30
2018-06-02T09:28:38.035Z,35.70
2018-06-02T09:29:38.074Z,31.60
2018-06-02T09:30:38.102Z,31.50
2018-06-02T09:31:38.138Z,31.60
2018-06-02T09:32:38.178Z,34.30
2018-06-02T09:33:38.208Z,32.80
2018-06-02T09:34:38.243Z,34.40
2018-06-02T09:35:38.283Z,31.70
2018-06-02T09:36:38.333Z,31.20
2018-06-02T09:37:38.358Z,29.40
2018-06-02T09:38:38.383Z,32.20
2018-06-02T09:39:38.420Z,30.50
2018-06-02T09:40:38.463Z,29.10
2018-06-02T09:41:38.497Z,29.10
2018-06-02T09:42:38.536Z,33.10
2018-06-02T09:43:38.575Z,28.20
2018-06-02T09:44:38.613Z,29.10
2018-06-02T09:45:38.639Z,29.70
2018-06-02T09:46:38.677Z,30.80
2018-06-02T09:47:38.744Z,36.20
2018-06-02T09:48:38.757Z,28.50
2018-06-02T09:49:38.792Z,31.00
2018-06-02T09:50:38.835Z,30.50
2018-06-02T09:51:38.871Z,30.60
2018-06-02T09:52:38.897Z,33.10
2018-06-02T09:53:38.934Z,31.30
2018-06-02T09:54:38.972Z,32.50
2018-06-02T09:55:39.010Z,32.30
2018-06-02T09:56:39.050Z,37.50
2018-06-02T09:57:39.105Z,33.70
2018-06-02T09:58:39.112Z,33.20
2018-06-02T09:59:39.152Z,37.60
2018-06-02T10:00:39.190Z,37.10
2018-06-02T10:01:39.232Z,36.30
2018-06-02T10:02:39.255Z,39.00
2018-06-02T10:03:39.293Z,37.50
2018-06-02T10:04:39.365Z,34.10
2018-06-02T10:05:39.370Z,39.30
2018-06-02T10:06:39.397Z,37.40
2018-06-02T10:07:39.437Z,36.00
2018-06-02T10:08:39.471Z,33.30
2018-06-02T10:09:39.499Z,33.70
2018-06-02T10:10:39.613Z,32.00
2018-06-02T10:11:39.575Z,30.90
2018-06-02T10:12:39.615Z,35.30
2018-06-02T10:13:39.639Z,32.70
2018-06-02T10:14:39.678Z,32.50
2018-06-02T10:15:39.717Z,32.10
2018-06-02T10:16:39.743Z,32.50
2018-06-02T10:17:39.781Z,29.50
2018-06-02T10:18:39.819Z,32.10
2018-06-02T10:19:39.845Z,32.80
2018-06-02T10:20:39.896Z,34.10
2018-06-02T10:21:39.979Z,33.60
2018-06-02T10:22:39.947Z,33.30
2018-06-02T10:23:39.987Z,32.70
2018-06-02T10:24:40.025Z,32.40
2018-06-02T10:25:40.052Z,31.70
2018-06-02T10:26:40.089Z,32.10
2018-06-02T10:27:40.129Z,30.20
2018-06-02T10:28:40.166Z,31.80
2018-06-02T10:29:40.248Z,30.30
2018-06-02T10:30:40.246Z,26.60
2018-06-02T10:31:40.281Z,31.10
2018-06-02T10:32:40.322Z,31.00
2018-06-02T10:33:40.345Z,30.60
2018-06-02T10:34:40.383Z,31.80
2018-06-02T10:35:40.508Z,27.80
2018-06-02T10:36:40.485Z,25.50
2018-06-02T10:37:40.512Z,27.80
2018-06-02T10:38:40.550Z,24.60
2018-06-02T10:39:40.590Z,26.00
2018-06-02T10:40:40.627Z,34.30
2018-06-02T10:41:40.665Z,30.40
2018-06-02T10:42:40.703Z,27.00
2018-06-02T10:43:40.746Z,26.40
2018-06-02T10:44:40.813Z,27.00
2018-06-02T10:45:40.820Z,27.70
2018-06-02T10:46:40.857Z,26.50
2018-06-02T10:47:40.906Z,25.90
2018-06-02T10:48:40.936Z,22.80
2018-06-02T10:49:40.986Z,26.50
2018-06-02T10:50:41.026Z,25.00
2018-06-02T10:51:41.063Z,27.30
2018-06-02T10:52:41.101Z,23.70
2018-06-02T10:53:41.138Z,23.00
2018-06-02T10:54:41.191Z,21.60
2018-06-02T10:55:41.234Z,31.20
2018-06-02T10:56:41.266Z,26.90
2018-06-02T10:57:41.305Z,26.60
2018-06-02T10:58:41.347Z,26.30
2018-06-02T10:59:41.406Z,28.90
2018-06-02T11:00:41.437Z,31.70
2018-06-02T11:01:41.521Z,28.20
2018-06-02T11:02:41.512Z,24.80
2018-06-02T11:03:41.561Z,24.60
2018-06-02T11:04:41.599Z,26.30
2018-06-02T11:05:41.638Z,31.10
2018-06-02T11:06:41.675Z,32.60
2018-06-02T11:07:41.716Z,32.30
2018-06-02T11:08:41.753Z,34.70
2018-06-02T11:09:41.791Z,31.10
2018-06-02T11:10:41.830Z,33.00
2018-06-02T11:11:41.880Z,32.00
2018-06-02T11:12:41.919Z,34.50
2018-06-02T11:13:41.956Z,32.40
2018-06-02T11:14:41.996Z,31.60
2018-06-02T11:15:42.033Z,38.50
2018-06-02T11:16:42.073Z,29.10
2018-06-02T11:17:42.099Z,31.80
2018-06-02T11:18:42.137Z,31.10
2018-06-02T11:19:42.180Z,27.50
2018-06-02T11:20:42.213Z,26.20
2018-06-02T11:21:42.253Z,31.60
2018-06-02T11:22:42.289Z,40.50
2018-06-02T11:23:42.330Z,32.20
2018-06-02T11:24:42.367Z,29.30
2018-06-02T11:25:42.416Z,32.30
2018-06-02T11:26:42.443Z,29.80
2018-06-02T11:27:42.484Z,31.20
2018-06-02T11:28:42.526Z,28.70
2018-06-02T11:29:42.548Z,35.10
2018-06-02T11:30:42.585Z,33.80
2018-06-02T11:31:42.623Z,33.10
2018-06-02T11:32:42.665Z,34.60
2018-06-02T11:33:42.700Z,31.40
2018-06-02T11:34:42.744Z,29.60
2018-06-02T11:35:42.780Z,32.50
2018-06-02T11:36:43.015Z,33.00
2018-06-02T11:37:42.853Z,35.50
2018-06-02T11:38:42.895Z,30.80
2018-06-02T11:39:42.930Z,30.60
2018-06-02T11:40:42.958Z,32.00
2018-06-02T11:41:42.995Z,32.00
2018-06-02T11:42:43.034Z,34.70
2018-06-02T11:43:43.073Z,35.00
2018-06-02T11:44:43.109Z,31.10
2018-06-02T11:45:43.149Z,29.30
2018-06-02T11:46:43.179Z,30.20
2018-06-02T11:47:43.216Z,31.90
2018-06-02T11:48:43.256Z,32.20
2018-06-02T11:49:43.289Z,30.10
2018-06-02T11:50:43.316Z,29.60
2018-06-02T11:51:43.355Z,31.60
2018-06-02T11:52:43.402Z,28.60
2018-06-02T11:53:43.435Z,29.00
2018-06-02T11:54:43.456Z,29.90
2018-06-02T11:55:43.495Z,30.00
2018-06-02T11:56:43.765Z,29.20
2018-06-02T11:57:43.571Z,26.50
2018-06-02T11:58:43.602Z,27.20
2018-06-02T11:59:43.652Z,25.90
2018-06-02T12:00:43.675Z,28.20
2018-06-02T12:01:43.701Z,27.20
2018-06-02T12:02:43.740Z,25.70
2018-06-02T12:03:43.781Z,26.30
2018-06-02T12:04:43.816Z,25.40
2018-06-02T12:05:43.845Z,24.20
2018-06-02T12:06:43.917Z,26.00
2018-06-02T12:07:43.906Z,24.70
2018-06-02T12:08:43.949Z,24.10
2018-06-02T12:09:43.983Z,26.50
2018-06-02T12:10:44.010Z,22.60
2018-06-02T12:11:44.051Z,22.40
2018-06-02T12:12:44.085Z,23.50
2018-06-02T12:13:44.113Z,25.60
2018-06-02T12:14:44.159Z,22.70
2018-06-02T12:15:44.189Z,22.70
2018-06-02T12:16:44.217Z,22.10
2018-06-02T12:17:44.254Z,21.80
2018-06-02T12:18:44.279Z,21.90
2018-06-02T12:19:44.317Z,20.00
2018-06-02T12:20:44.358Z,22.90
2018-06-02T12:21:44.386Z,22.30
2018-06-02T12:22:44.423Z,21.30
2018-06-02T12:23:44.448Z,23.40
2018-06-02T12:24:44.485Z,25.10
2018-06-02T12:25:44.539Z,21.60
2018-06-02T12:26:44.549Z,24.50
2018-06-02T12:27:44.588Z,25.80
2018-06-02T12:28:44.613Z,27.70
2018-06-02T12:29:44.650Z,26.30
2018-06-02T12:30:44.691Z,27.70
2018-06-02T12:31:44.722Z,25.20
2018-06-02T12:32:44.757Z,27.20
2018-06-02T12:33:44.794Z,29.70
2018-06-02T12:34:44.823Z,25.20
2018-06-02T12:35:44.856Z,27.60
2018-06-02T12:36:44.882Z,24.80
2018-06-02T12:37:44.922Z,26.10
2018-06-02T12:38:44.948Z,23.50
2018-06-02T12:39:44.985Z,24.60
2018-06-02T12:40:45.024Z,25.50
2018-06-02T12:41:45.050Z,24.50
2018-06-02T12:42:45.091Z,24.00
2018-06-02T12:43:45.115Z,22.80